x

South Brooks (46132) Wave Buoy

7:00 - Fri 4th Sep 2015 All times are PDT. -7 hours from GMT.

  • Sig Wave height 4.3ft
  • Peak Period 13s
  • Wind
    16mph, 20mph gusts
  • Sea Temp 60°f
  • Ar Temp 59°f
  • Sea Pressure 1017.1mb
  • South Brooks
  • South Brooks

More Historic Weather Station data

Upgrade to MSW Pro to gain access to the past 30 days of data for over 8000 Wavebouys and Weather Stations around the globe.

Join Pro

Comparision Forecast

View Surf forecast
   
Sex 09/04 7:00 4.5ft 13s 16 20 mph 1017.1mb 60f 59f
6:00 4ft 14s 18 20 mph 1017.5mb 60f 59f
5:00 4ft 12s 18 20 mph 1017.3mb 60f 59f
4:00 4ft 12s 16 18 mph 1017.3mb 60f 59f
3:00 3.5ft 12s 16 18 mph 1017.6mb 60f 58f
2:00 3.5ft 12s 13
mph
1017.7mb 60f 57f
1:00 4ft 12s 11 13 mph 1017.8mb 60f 56f
12:00 4.5ft 14s 11 13 mph 1018mb 60f 56f
11:00 4.5ft 8s 11 13 mph 1018mb 60f 56f
10:00 4.5ft 8s 11 13 mph 1017.9mb 60f 56f
9:00 5ft 8s 11 13 mph 1018.1mb 60f 56f
8:00 4.5ft 8s 9 13 mph 1018.1mb 60f 56f
7:00 4.5ft 8s 11 13 mph 1017.8mb 60f 56f
6:00 5ft 8s 7
mph
1017.5mb 60f 56f
5:00 4.5ft 8s 2
mph
1017.1mb 60f 56f
4:00 4.5ft 9s 2 4 mph 1016.9mb 60f 56f
3:00 4.5ft 8s 4 7 mph 1016.8mb 60f 56f
2:00 4.5ft 14s 7 9 mph 1017mb 60f 56f
1:00 5ft 8s 11 13 mph 1016.9mb 60f 56f
12:00 5ft 14s 16 18 mph 1016.8mb 60f 56f
Qui 09/03 11:00 5ft 12s 18 22 mph 1016.7mb 60f 57f
10:00 4.5ft 9s 18 20 mph 1016.5mb 60f 57f
9:00 4.5ft 9s 13 18 mph 1016.1mb 60f 57f
8:00 5ft 8s 13 16 mph 1015.7mb 60f 58f
7:00 5ft 8s 9 11 mph 1015.6mb 60f 58f
6:00 5ft 8s 11 13 mph 1015.4mb 60f 57f
5:00 5ft 8s 11 13 mph 1015.4mb 61f 57f
4:00 5ft 10s 9 11 mph 1015.4mb 62f 57f
3:00 5ft 8s 4 7 mph 1015.5mb 62f 58f
2:00 5.5ft 10s 2 4 mph 1015.5mb 61f 58f
1:00 5ft 10s 2 4 mph 1015.5mb 61f 58f
12:00 5.5ft 9s  -  2 mph 1015.5mb 61f 58f
11:00 6ft 10s  -  2 mph 1015.4mb 60f 58f
10:00 6ft 10s 2 4 mph 1015.1mb 60f 58f
9:00 6ft 10s  -  4 mph 1014.8mb 59f 58f
8:00 6ft 10s 2 4 mph 1014.8mb 59f 57f
7:00 7ft 10s 2 4 mph 1014.3mb 59f 56f
6:00 7ft 9s 9 13 mph 1014.2mb 59f 56f
5:00 7ft 10s 13 16 mph 1013.7mb 59f 55f
4:00 7.5ft 10s 16 18 mph 1013.4mb 60f 57f
3:00 8ft 11s 13 18 mph 1013.3mb 60f 57f
2:00 8ft 10s 16 18 mph 1013.3mb 60f 57f
1:00 8.5ft 11s 13 16 mph 1013.3mb 60f 58f
12:00 8ft 11s 11 13 mph 1013.3mb 59f 57f
Qua 09/02 11:00 9ft 10s 9 11 mph 1013.5mb 59f 57f
10:00 8.5ft 10s 7 9 mph 1013.4mb 60f 56f
9:00 8.5ft 11s 11 16 mph 1013.5mb 60f 57f
8:00 8.5ft 11s 9 11 mph 1013mb 60f 56f
7:00 9ft 11s 9 11 mph 1012.4mb 60f 58f
6:00 8.5ft 10s 11 16 mph 1011.9mb 60f 57f
5:00 9ft 11s 11 16 mph 1011.8mb 60f 58f
4:00 9.5ft 10s 7 9 mph 1011.6mb 60f 58f
3:00 10ft 11s 13 22 mph 1011.4mb 60f 57f
2:00 11ft 10s 9 13 mph 1010.8mb 60f 58f
1:00 11ft 12s 11 16 mph 1010.5mb 60f 57f
12:00 10ft 12s 11 13 mph 1010mb 59f 57f
11:00 10.5ft 11s 13 16 mph 1009.3mb 59f 57f
10:00 10ft 12s 7 9 mph 1008.7mb 59f 56f
9:00 10ft 11s 7 9 mph 1007.7mb 59f 55f
8:00 10ft 12s 9 13 mph 1007.1mb 59f 58f
7:00 10.5ft 11s 11 13 mph 1006.6mb 59f 58f
6:00 11ft 12s 4 7 mph 1006.3mb 59f 56f
5:00 10.5ft 12s 4 7 mph 1005.9mb 59f 56f
4:00 10.5ft 13s 9 13 mph 1005.4mb 59f 56f
3:00 11.5ft 12s 9 13 mph 1005mb 59f 56f
2:00 11ft 11s 18 31 mph 1004.9mb 59f 56f
1:00 11ft 11s 18 22 mph 1004.7mb 59f 59f
12:00 11ft 11s 18 22 mph 1004.9mb 59f 59f
Ter 09/01 11:00 10.5ft 11s 20 25 mph 1004.6mb 59f 58f
10:00 11ft 11s 9 13 mph 1005.5mb 59f 57f
9:00 11.5ft 11s 7 9 mph 1005.4mb 59f 56f
8:00 11.5ft 11s 16 22 mph 1004.9mb 60f 59f
7:00 12.5ft 12s 11 16 mph 1005.1mb 60f 58f
6:00 10ft 12s 18 20 mph 1004.7mb 60f 59f
5:00 10ft 10s 7 9 mph 1004.8mb 60f 57f
4:00 11ft 12s 9 13 mph 1005.2mb 60f 55f
3:00 10ft 12s 7 9 mph 1005mb 60f 56f
2:00 10ft 12s 13 18 mph 1005mb 60f 56f
1:00 10.5ft 11s 16 20 mph 1004.8mb 60f 56f
12:00 10ft 12s 16 22 mph 1004.9mb 60f 60f
11:00 9ft 12s 18 25 mph 1004.9mb 60f 59f
10:00 10ft 12s 20 25 mph 1005.1mb 59f 58f
9:00 10ft 12s 13 18 mph 1006mb 59f 58f
8:00 10ft 12s 20 27 mph 1006.6mb 59f 55f
7:00 10ft 12s 13 16 mph 1006.5mb 59f 60f
6:00 10.5ft 12s 11 13 mph 1007.1mb 59f 60f
5:00 10.5ft 12s 11 18 mph 1007.6mb 59f 60f
4:00 11ft 12s 13 18 mph 1007.9mb 59f 59f